createdAt,value
2023-04-25T00:01:41.897Z,97915.00
2023-04-25T00:04:08.925Z,97917.00
2023-04-25T00:06:37.166Z,97916.00
2023-04-25T00:09:08.417Z,97914.00
2023-04-25T00:11:35.345Z,97918.00
2023-04-25T00:14:03.270Z,97914.00
2023-04-25T00:16:31.708Z,97911.00
2023-04-25T00:18:59.715Z,97910.00
2023-04-25T00:21:26.544Z,97912.00
2023-04-25T00:23:56.884Z,97906.00
2023-04-25T00:26:23.441Z,97909.00
2023-04-25T00:28:49.948Z,97912.00
2023-04-25T00:31:16.541Z,97913.00
2023-04-25T00:33:43.106Z,97912.00
2023-04-25T00:36:10.025Z,97913.00
2023-04-25T00:38:36.816Z,97911.00
2023-04-25T00:41:03.342Z,97908.00
2023-04-25T00:43:32.012Z,97902.00
2023-04-25T00:46:00.568Z,97907.00
2023-04-25T00:48:27.026Z,97895.00
2023-04-25T00:50:57.557Z,97894.00
2023-04-25T00:53:25.753Z,97890.00
2023-04-25T00:55:53.096Z,97886.00
2023-04-25T00:58:20.994Z,97881.00
2023-04-25T01:00:48.937Z,97886.00
2023-04-25T01:03:17.341Z,97888.00
2023-04-25T01:05:44.739Z,97894.00
2023-04-25T01:08:11.595Z,97892.00
2023-04-25T01:10:38.133Z,97893.00
2023-04-25T01:13:04.973Z,97882.00
2023-04-25T01:15:31.601Z,97882.00
2023-04-25T01:17:59.211Z,97883.00
2023-04-25T01:20:27.305Z,97879.00
2023-04-25T01:22:54.656Z,97884.00
2023-04-25T01:25:21.495Z,97876.00
2023-04-25T01:27:48.431Z,97885.00
2023-04-25T01:30:15.487Z,97886.00
2023-04-25T01:32:43.415Z,97882.00
2023-04-25T01:35:12.254Z,97889.00
2023-04-25T01:37:42.692Z,97891.00
2023-04-25T01:40:12.803Z,97885.00
2023-04-25T01:42:41.934Z,97883.00
2023-04-25T01:45:09.245Z,97886.00
2023-04-25T01:47:38.698Z,97890.00
2023-04-25T01:50:06.681Z,97886.00
2023-04-25T01:52:33.659Z,97886.00
2023-04-25T01:55:02.553Z,97887.00
2023-04-25T01:57:31.692Z,97888.00
2023-04-25T02:00:01.595Z,97886.00
2023-04-25T02:02:45.986Z,97887.00
2023-04-25T02:05:37.678Z,97875.00
2023-04-25T02:08:07.834Z,97877.00
2023-04-25T02:10:35.501Z,97871.00
2023-04-25T02:13:09.806Z,97876.00
2023-04-25T02:15:56.686Z,97874.00
2023-04-25T02:18:23.211Z,97877.00
2023-04-25T02:20:49.749Z,97875.00
2023-04-25T02:23:20.120Z,97872.00
2023-04-25T02:25:46.757Z,97873.00
2023-04-25T02:28:14.071Z,97874.00
2023-04-25T02:30:40.893Z,97873.00
2023-04-25T02:33:07.452Z,97872.00
2023-04-25T02:35:33.942Z,97880.00
2023-04-25T02:38:00.611Z,97864.00
2023-04-25T02:40:27.212Z,97868.00
2023-04-25T02:42:54.559Z,97872.00
2023-04-25T02:45:21.084Z,97869.00
2023-04-25T02:47:47.571Z,97866.00
2023-04-25T02:50:14.092Z,97869.00
2023-04-25T02:52:41.123Z,97857.00
2023-04-25T02:55:15.618Z,97854.00
2023-04-25T02:57:43.439Z,97860.00
2023-04-25T03:00:15.228Z,97860.00
2023-04-25T03:02:41.862Z,97867.00
2023-04-25T03:05:08.477Z,97859.00
2023-04-25T03:07:36.243Z,97860.00
2023-04-25T03:10:03.315Z,97862.00
2023-04-25T03:12:31.569Z,97864.00
2023-04-25T03:14:58.166Z,97862.00
2023-04-25T03:17:24.857Z,97871.00
2023-04-25T03:19:51.413Z,97867.00
2023-04-25T03:22:18.088Z,97868.00
2023-04-25T03:24:44.617Z,97873.00
2023-04-25T03:27:11.151Z,97872.00
2023-04-25T03:29:37.714Z,97869.00
2023-04-25T03:32:05.623Z,97871.00
2023-04-25T03:34:32.117Z,97881.00
2023-04-25T03:36:59.057Z,97875.00
2023-04-25T03:39:26.073Z,97876.00
2023-04-25T03:41:53.389Z,97878.00
2023-04-25T03:44:20.892Z,97875.00
2023-04-25T03:46:47.937Z,97877.00
2023-04-25T03:49:17.012Z,97866.00
2023-04-25T03:52:01.300Z,97863.00
2023-04-25T03:54:30.823Z,97859.00
2023-04-25T03:57:05.678Z,97856.00
2023-04-25T03:59:35.190Z,97862.00
2023-04-25T04:02:02.411Z,97867.00
2023-04-25T04:04:29.703Z,97869.00
2023-04-25T04:06:56.732Z,97867.00
2023-04-25T04:09:27.059Z,97869.00
2023-04-25T04:11:54.523Z,97863.00
2023-04-25T04:14:21.075Z,97856.00
2023-04-25T04:16:49.388Z,97856.00
2023-04-25T04:19:15.974Z,97863.00
2023-04-25T04:21:48.046Z,97856.00
2023-04-25T04:24:15.923Z,97862.00
2023-04-25T04:26:53.945Z,97851.00
2023-04-25T04:29:30.321Z,97852.00
2023-04-25T04:32:02.098Z,97856.00
2023-04-25T04:34:29.894Z,97852.00
2023-04-25T04:36:57.097Z,97850.00
2023-04-25T04:39:23.728Z,97863.00
2023-04-25T04:42:22.651Z,97869.00
2023-04-25T04:45:17.034Z,97872.00
2023-04-25T04:47:56.314Z,97865.00
2023-04-25T04:50:54.904Z,97877.00
2023-04-25T04:53:42.810Z,97876.00
2023-04-25T04:56:17.725Z,97878.00
2023-04-25T04:58:46.823Z,97883.00
2023-04-25T05:01:28.291Z,97885.00
2023-04-25T05:04:02.038Z,97890.00
2023-04-25T05:06:48.591Z,97896.00
2023-04-25T05:09:35.817Z,97895.00
2023-04-25T05:12:21.047Z,97899.00
2023-04-25T05:14:47.519Z,97892.00
2023-04-25T05:17:31.996Z,97894.00
2023-04-25T05:20:08.313Z,97903.00
2023-04-25T05:22:50.412Z,97909.00
2023-04-25T05:25:27.602Z,97916.00
2023-04-25T05:28:06.814Z,97912.00
2023-04-25T05:30:45.773Z,97912.00
2023-04-25T05:33:18.361Z,97907.00
2023-04-25T05:35:46.033Z,97923.00
2023-04-25T05:38:12.531Z,97920.00
2023-04-25T05:40:57.491Z,97914.00
2023-04-25T05:43:48.217Z,97913.00
2023-04-25T05:46:28.320Z,97919.00
2023-04-25T05:49:21.953Z,97928.00
2023-04-25T05:51:57.451Z,97919.00
2023-04-25T05:54:36.906Z,97924.00
2023-04-25T05:57:04.268Z,97924.00
2023-04-25T05:59:31.136Z,97934.00
2023-04-25T06:01:58.211Z,97932.00
2023-04-25T06:04:24.931Z,97929.00
2023-04-25T06:06:51.739Z,97933.00
2023-04-25T06:09:18.280Z,97931.00
2023-04-25T06:11:44.759Z,97930.00
2023-04-25T06:14:11.305Z,97929.00
2023-04-25T06:16:42.744Z,97937.00
2023-04-25T06:19:09.359Z,97929.00
2023-04-25T06:21:35.930Z,97934.00
2023-04-25T06:24:02.727Z,97931.00
2023-04-25T06:26:29.449Z,97935.00
2023-04-25T06:28:55.971Z,97939.00
2023-04-25T06:31:22.749Z,97938.00
2023-04-25T06:33:50.904Z,97942.00
2023-04-25T06:36:17.598Z,97940.00
2023-04-25T06:38:47.704Z,97937.00
2023-04-25T06:41:14.859Z,97939.00
2023-04-25T06:43:41.386Z,97942.00
2023-04-25T06:46:22.836Z,97945.00
2023-04-25T06:48:50.281Z,97948.00
2023-04-25T06:51:18.726Z,97945.00
2023-04-25T06:53:46.448Z,97955.00
2023-04-25T06:56:24.459Z,97949.00
2023-04-25T06:58:57.698Z,97956.00
2023-04-25T07:01:29.833Z,97961.00
2023-04-25T07:03:57.630Z,97957.00
2023-04-25T07:06:26.841Z,97966.00
2023-04-25T07:08:54.028Z,97965.00
2023-04-25T07:11:20.846Z,97974.00
2023-04-25T07:13:47.323Z,97960.00
2023-04-25T07:16:13.893Z,97970.00
2023-04-25T07:18:40.952Z,97964.00
2023-04-25T07:21:07.854Z,97966.00
2023-04-25T07:23:36.081Z,97976.00
2023-04-25T07:26:09.013Z,97981.00
2023-04-25T07:28:36.356Z,97981.00
2023-04-25T07:31:03.605Z,97977.00
2023-04-25T07:33:32.260Z,97975.00
2023-04-25T07:35:59.172Z,97971.00
2023-04-25T07:38:25.824Z,97981.00
2023-04-25T07:40:52.406Z,97974.00
2023-04-25T07:43:18.950Z,97980.00
2023-04-25T07:45:53.214Z,97980.00
2023-04-25T07:48:20.763Z,97985.00
2023-04-25T07:50:49.653Z,97983.00
2023-04-25T07:53:18.866Z,97986.00
2023-04-25T07:55:53.699Z,97991.00
2023-04-25T07:58:22.249Z,97990.00
2023-04-25T08:00:51.896Z,97995.00
2023-04-25T08:03:30.248Z,98004.00
2023-04-25T08:05:58.498Z,98006.00
2023-04-25T08:08:28.096Z,98010.00
2023-04-25T08:10:54.715Z,98029.00
2023-04-25T08:13:21.740Z,98026.00
2023-04-25T08:15:48.553Z,98038.00
2023-04-25T08:18:17.045Z,98039.00
2023-04-25T08:20:45.043Z,98041.00
2023-04-25T08:23:13.462Z,98045.00
2023-04-25T08:26:00.301Z,98071.00
2023-04-25T08:28:28.547Z,98054.00
2023-04-25T08:30:57.540Z,98064.00
2023-04-25T08:33:32.190Z,98084.00
2023-04-25T08:36:04.491Z,98069.00
2023-04-25T08:38:32.484Z,98083.00
2023-04-25T08:41:01.862Z,98093.00
2023-04-25T08:43:30.668Z,98100.00
2023-04-25T08:46:01.201Z,98095.00
2023-04-25T08:48:46.425Z,98107.00
2023-04-25T08:51:25.674Z,98103.00
2023-04-25T08:53:54.127Z,98111.00
2023-04-25T08:56:25.065Z,98109.00
2023-04-25T08:58:52.238Z,98126.00
2023-04-25T09:01:19.563Z,98123.00
2023-04-25T09:03:52.612Z,98119.00
2023-04-25T09:06:20.642Z,98125.00
2023-04-25T09:08:51.310Z,98126.00
2023-04-25T09:11:19.625Z,98130.00
2023-04-25T09:13:47.188Z,98141.00
2023-04-25T09:16:56.566Z,98145.00
2023-04-25T09:19:42.183Z,98150.00
2023-04-25T09:22:28.745Z,98143.00
2023-04-25T09:24:55.312Z,98150.00
2023-04-25T09:27:27.718Z,98152.00
2023-04-25T09:30:03.565Z,98164.00
2023-04-25T09:32:48.033Z,98171.00
2023-04-25T09:35:26.326Z,98176.00
2023-04-25T09:37:54.301Z,98174.00
2023-04-25T09:40:46.250Z,98185.00
2023-04-25T09:43:23.154Z,98177.00
2023-04-25T09:45:54.452Z,98177.00
2023-04-25T09:48:22.945Z,98174.00
2023-04-25T09:51:06.384Z,98179.00
2023-04-25T09:53:36.284Z,98184.00
2023-04-25T09:56:13.748Z,98185.00
2023-04-25T09:58:41.523Z,98190.00
2023-04-25T10:01:12.026Z,98189.00
2023-04-25T10:03:53.199Z,98198.00
2023-04-25T10:06:37.608Z,98201.00
2023-04-25T10:09:05.407Z,98204.00
2023-04-25T10:11:32.993Z,98202.00
2023-04-25T10:14:01.095Z,98198.00
2023-04-25T10:16:28.933Z,98196.00
2023-04-25T10:18:56.506Z,98197.00
2023-04-25T10:21:23.031Z,98197.00
2023-04-25T10:23:50.761Z,98200.00
2023-04-25T10:26:18.324Z,98208.00
2023-04-25T10:28:59.360Z,98201.00
2023-04-25T10:31:26.736Z,98204.00
2023-04-25T10:33:54.627Z,98199.00
2023-04-25T10:36:25.572Z,98191.00
2023-04-25T10:38:53.524Z,98195.00
2023-04-25T10:41:23.719Z,98199.00
2023-04-25T10:43:52.053Z,98205.00
2023-04-25T10:46:20.419Z,98203.00
2023-04-25T10:48:53.851Z,98199.00
2023-04-25T10:51:34.623Z,98190.00
2023-04-25T10:54:08.578Z,98206.00
2023-04-25T10:56:40.656Z,98202.00
2023-04-25T10:59:12.548Z,98211.00
2023-04-25T11:01:45.074Z,98201.00
2023-04-25T11:04:25.312Z,98199.00
2023-04-25T11:07:10.570Z,98206.00
2023-04-25T11:09:39.900Z,98205.00
2023-04-25T11:12:09.397Z,98207.00
2023-04-25T11:14:36.974Z,98216.00
2023-04-25T11:17:03.704Z,98216.00
2023-04-25T11:19:30.955Z,98221.00
2023-04-25T11:22:01.255Z,98223.00
2023-04-25T11:24:33.035Z,98221.00
2023-04-25T11:27:00.769Z,98229.00
2023-04-25T11:29:28.038Z,98233.00
2023-04-25T11:31:58.921Z,98233.00
2023-04-25T11:34:26.436Z,98236.00
2023-04-25T11:36:54.115Z,98236.00
2023-04-25T11:39:21.237Z,98235.00
2023-04-25T11:41:48.492Z,98233.00
2023-04-25T11:44:19.023Z,98236.00
2023-04-25T11:46:46.631Z,98232.00
2023-04-25T11:49:14.310Z,98235.00
2023-04-25T11:51:49.759Z,98227.00
2023-04-25T11:54:16.609Z,98225.00
2023-04-25T11:56:44.688Z,98227.00
2023-04-25T11:59:12.650Z,98222.00
2023-04-25T12:01:49.100Z,98227.00
2023-04-25T12:04:15.729Z,98238.00
2023-04-25T12:06:44.219Z,98232.00
2023-04-25T12:09:14.003Z,98238.00
2023-04-25T12:11:44.596Z,98250.00
2023-04-25T12:14:12.147Z,98245.00
2023-04-25T12:16:45.945Z,98240.00
2023-04-25T12:19:16.432Z,98252.00
2023-04-25T12:21:56.694Z,98241.00
2023-04-25T12:24:27.023Z,98249.00
2023-04-25T12:27:04.585Z,98246.00
2023-04-25T12:29:41.974Z,98251.00
2023-04-25T12:32:14.824Z,98249.00
2023-04-25T12:34:41.618Z,98259.00
2023-04-25T12:37:08.481Z,98257.00
2023-04-25T12:39:35.288Z,98257.00
2023-04-25T12:42:01.941Z,98251.00
2023-04-25T12:44:28.531Z,98255.00
2023-04-25T12:46:56.174Z,98260.00
2023-04-25T12:49:23.321Z,98256.00
2023-04-25T12:51:50.170Z,98256.00
2023-04-25T12:54:16.880Z,98267.00
2023-04-25T12:56:43.491Z,98260.00
2023-04-25T12:59:10.427Z,98258.00
2023-04-25T13:01:37.484Z,98266.00
2023-04-25T13:04:04.386Z,98268.00
2023-04-25T13:06:31.917Z,98263.00
2023-04-25T13:08:58.646Z,98269.00
2023-04-25T13:11:25.219Z,98270.00
2023-04-25T13:13:52.074Z,98262.00
2023-04-25T13:16:21.663Z,98263.00
2023-04-25T13:18:48.344Z,98268.00
2023-04-25T13:21:15.261Z,98271.00
2023-04-25T13:23:43.730Z,98272.00
2023-04-25T13:26:10.423Z,98273.00
2023-04-25T13:28:37.003Z,98279.00
2023-04-25T13:31:03.486Z,98289.00
2023-04-25T13:33:30.005Z,98288.00
2023-04-25T13:35:58.070Z,98286.00
2023-04-25T13:38:26.363Z,98279.00
2023-04-25T13:40:53.675Z,98282.00
2023-04-25T13:43:22.715Z,98289.00
2023-04-25T13:45:50.080Z,98294.00
2023-04-25T13:48:17.043Z,98290.00
2023-04-25T13:50:43.595Z,98303.00
2023-04-25T13:53:10.152Z,98301.00
2023-04-25T13:55:39.803Z,98308.00
2023-04-25T13:58:08.850Z,98311.00
2023-04-25T14:00:39.500Z,98308.00
2023-04-25T14:03:08.384Z,98309.00
2023-04-25T14:05:39.273Z,98299.00
2023-04-25T14:08:10.178Z,98313.00
2023-04-25T14:10:37.829Z,98309.00
2023-04-25T14:13:05.492Z,98311.00
2023-04-25T14:15:35.557Z,98312.00
2023-04-25T14:18:02.598Z,98320.00
2023-04-25T14:20:29.980Z,98306.00
2023-04-25T14:22:58.097Z,98299.00
2023-04-25T14:25:26.260Z,98304.00
2023-04-25T14:27:52.801Z,98316.00
2023-04-25T14:30:20.617Z,98301.00
2023-04-25T14:32:47.556Z,98302.00
2023-04-25T14:35:14.218Z,98307.00
2023-04-25T14:37:40.902Z,98307.00
2023-04-25T14:40:11.253Z,98301.00
2023-04-25T14:42:38.167Z,98302.00
2023-04-25T14:45:07.303Z,98316.00
2023-04-25T14:47:34.102Z,98323.00
2023-04-25T14:50:00.674Z,98315.00
2023-04-25T14:52:27.234Z,98321.00
2023-04-25T14:54:54.029Z,98324.00
2023-04-25T14:57:20.621Z,98323.00
2023-04-25T14:59:47.315Z,98331.00
2023-04-25T15:02:14.041Z,98325.00
2023-04-25T15:04:40.698Z,98330.00
2023-04-25T15:07:07.240Z,98323.00
2023-04-25T15:09:33.797Z,98324.00
2023-04-25T15:12:00.352Z,98325.00
2023-04-25T15:14:27.060Z,98337.00
2023-04-25T15:16:53.705Z,98322.00
2023-04-25T15:19:20.258Z,98329.00
2023-04-25T15:21:47.874Z,98327.00
2023-04-25T15:24:16.068Z,98332.00
2023-04-25T15:26:42.633Z,98320.00
2023-04-25T15:29:09.181Z,98320.00
2023-04-25T15:31:35.814Z,98326.00
2023-04-25T15:34:02.487Z,98331.00
2023-04-25T15:36:29.035Z,98332.00
2023-04-25T15:38:56.701Z,98339.00
2023-04-25T15:41:23.288Z,98337.00
2023-04-25T15:43:50.153Z,98347.00
2023-04-25T15:46:16.912Z,98340.00
2023-04-25T15:48:43.597Z,98345.00
2023-04-25T15:51:10.547Z,98350.00
2023-04-25T15:53:37.353Z,98352.00
2023-04-25T15:56:04.645Z,98358.00
2023-04-25T15:58:31.232Z,98349.00
2023-04-25T16:00:57.845Z,98349.00
2023-04-25T16:03:24.640Z,98348.00
2023-04-25T16:05:51.296Z,98349.00
2023-04-25T16:08:17.847Z,98355.00
2023-04-25T16:10:44.738Z,98358.00
2023-04-25T16:13:11.746Z,98355.00
2023-04-25T16:15:38.712Z,98350.00
2023-04-25T16:18:05.499Z,98357.00
2023-04-25T16:20:33.648Z,98352.00
2023-04-25T16:23:00.341Z,98351.00
2023-04-25T16:25:27.572Z,98355.00
2023-04-25T16:27:54.088Z,98357.00
2023-04-25T16:30:20.678Z,98364.00
2023-04-25T16:32:47.287Z,98370.00
2023-04-25T16:35:13.874Z,98371.00
2023-04-25T16:37:40.362Z,98366.00
2023-04-25T16:40:10.240Z,98383.00
2023-04-25T16:42:37.261Z,98384.00
2023-04-25T16:45:05.162Z,98371.00
2023-04-25T16:47:32.319Z,98375.00
2023-04-25T16:50:01.495Z,98387.00
2023-04-25T16:52:28.031Z,98374.00
2023-04-25T16:54:54.628Z,98380.00
2023-04-25T16:57:21.214Z,98387.00
2023-04-25T16:59:47.851Z,98388.00
2023-04-25T17:02:15.068Z,98386.00
2023-04-25T17:04:41.790Z,98387.00
2023-04-25T17:07:09.146Z,98395.00
2023-04-25T17:09:36.265Z,98396.00
2023-04-25T17:12:03.963Z,98399.00
2023-04-25T17:14:32.307Z,98393.00
2023-04-25T17:16:59.081Z,98403.00
2023-04-25T17:19:26.106Z,98407.00
2023-04-25T17:21:52.676Z,98403.00
2023-04-25T17:24:21.252Z,98406.00
2023-04-25T17:26:49.026Z,98412.00
2023-04-25T17:29:15.852Z,98412.00
2023-04-25T17:31:42.670Z,98411.00
2023-04-25T17:34:09.830Z,98406.00
2023-04-25T17:36:36.583Z,98407.00
2023-04-25T17:39:05.996Z,98411.00
2023-04-25T17:41:32.539Z,98413.00
2023-04-25T17:43:59.044Z,98413.00
2023-04-25T17:46:27.437Z,98419.00
2023-04-25T17:48:54.414Z,98414.00
2023-04-25T17:51:21.254Z,98420.00
2023-04-25T17:53:48.005Z,98419.00
2023-04-25T17:56:25.949Z,98419.00
2023-04-25T17:58:53.768Z,98429.00
2023-04-25T18:01:20.641Z,98426.00
2023-04-25T18:03:49.196Z,98436.00
2023-04-25T18:06:17.919Z,98440.00
2023-04-25T18:08:44.780Z,98444.00
2023-04-25T18:11:12.082Z,98445.00
2023-04-25T18:13:39.168Z,98447.00
2023-04-25T18:16:06.145Z,98454.00
2023-04-25T18:18:36.817Z,98458.00
2023-04-25T18:21:05.202Z,98454.00
2023-04-25T18:23:34.075Z,98462.00
2023-04-25T18:26:01.532Z,98461.00
2023-04-25T18:28:28.420Z,98473.00
2023-04-25T18:30:54.949Z,98471.00
2023-04-25T18:33:22.371Z,98483.00
2023-04-25T18:35:58.796Z,98488.00
2023-04-25T18:41:01.365Z,98476.00
2023-04-25T18:43:32.536Z,98477.00
2023-04-25T18:45:59.095Z,98487.00
2023-04-25T18:48:26.329Z,98486.00
2023-04-25T18:50:52.987Z,98488.00
2023-04-25T18:53:19.465Z,98488.00
2023-04-25T18:55:45.927Z,98496.00
2023-04-25T18:58:12.489Z,98481.00
2023-04-25T19:00:40.023Z,98484.00
2023-04-25T19:03:06.641Z,98496.00
2023-04-25T19:05:33.285Z,98504.00
2023-04-25T19:07:59.815Z,98506.00
2023-04-25T19:10:27.000Z,98512.00
2023-04-25T19:12:53.887Z,98514.00
2023-04-25T19:15:20.365Z,98515.00
2023-04-25T19:17:46.895Z,98523.00
2023-04-25T19:20:13.429Z,98517.00
2023-04-25T19:22:39.969Z,98525.00
2023-04-25T19:25:10.759Z,98529.00
2023-04-25T19:27:37.624Z,98523.00
2023-04-25T19:30:08.045Z,98527.00
2023-04-25T19:32:35.949Z,98528.00
2023-04-25T19:35:03.953Z,98531.00
2023-04-25T19:37:30.825Z,98528.00
2023-04-25T19:39:57.551Z,98542.00
2023-04-25T19:42:24.036Z,98542.00
2023-04-25T19:44:52.040Z,98539.00
2023-04-25T19:47:18.576Z,98547.00
2023-04-25T19:49:45.088Z,98544.00
2023-04-25T19:52:14.897Z,98546.00
2023-04-25T19:54:41.985Z,98551.00
2023-04-25T19:57:08.913Z,98542.00
2023-04-25T19:59:35.436Z,98543.00
2023-04-25T20:02:02.106Z,98544.00
2023-04-25T20:04:28.670Z,98542.00
2023-04-25T20:06:56.101Z,98540.00
2023-04-25T20:09:23.283Z,98542.00
2023-04-25T20:11:49.876Z,98547.00
2023-04-25T20:14:16.480Z,98552.00
2023-04-25T20:16:43.041Z,98559.00
2023-04-25T20:19:09.549Z,98554.00
2023-04-25T20:21:36.213Z,98556.00
2023-04-25T20:24:02.919Z,98557.00
2023-04-25T20:26:33.766Z,98557.00
2023-04-25T20:29:01.770Z,98555.00
2023-04-25T20:31:30.808Z,98562.00
2023-04-25T20:33:58.988Z,98560.00
2023-04-25T20:36:27.417Z,98560.00
2023-04-25T20:38:54.506Z,98570.00
2023-04-25T20:41:21.348Z,98563.00
2023-04-25T20:43:48.158Z,98568.00
2023-04-25T20:46:15.913Z,98566.00
2023-04-25T20:48:42.594Z,98564.00
2023-04-25T20:51:09.180Z,98562.00
2023-04-25T20:53:35.683Z,98569.00
2023-04-25T20:56:02.681Z,98571.00
2023-04-25T20:58:29.213Z,98571.00
2023-04-25T21:00:56.492Z,98575.00
2023-04-25T21:03:23.331Z,98562.00
2023-04-25T21:05:49.934Z,98564.00
2023-04-25T21:08:17.076Z,98567.00
2023-04-25T21:10:43.620Z,98569.00
2023-04-25T21:13:10.127Z,98570.00
2023-04-25T21:15:36.635Z,98570.00
2023-04-25T21:18:03.141Z,98577.00
2023-04-25T21:20:29.640Z,98583.00
2023-04-25T21:22:56.152Z,98576.00
2023-04-25T21:25:29.241Z,98577.00
2023-04-25T21:27:56.229Z,98580.00
2023-04-25T21:30:24.124Z,98582.00
2023-04-25T21:32:51.902Z,98577.00
2023-04-25T21:35:20.113Z,98575.00
2023-04-25T21:37:47.052Z,98574.00
2023-04-25T21:40:14.360Z,98582.00
2023-04-25T21:42:49.835Z,98583.00
2023-04-25T21:45:16.339Z,98587.00
2023-04-25T21:47:43.228Z,98582.00
2023-04-25T21:50:10.121Z,98581.00
2023-04-25T21:52:37.355Z,98590.00
2023-04-25T21:55:04.135Z,98577.00
2023-04-25T21:57:30.644Z,98581.00
2023-04-25T21:59:57.199Z,98590.00
2023-04-25T22:02:24.653Z,98594.00
2023-04-25T22:04:52.261Z,98598.00
2023-04-25T22:07:18.833Z,98602.00
2023-04-25T22:09:54.370Z,98603.00
2023-04-25T22:12:23.298Z,98595.00
2023-04-25T22:14:50.214Z,98595.00
2023-04-25T22:17:17.591Z,98599.00
2023-04-25T22:19:44.569Z,98605.00
2023-04-25T22:22:11.402Z,98603.00
2023-04-25T22:24:38.750Z,98602.00
2023-04-25T22:27:05.323Z,98611.00
2023-04-25T22:29:31.780Z,98606.00
2023-04-25T22:31:58.453Z,98608.00
2023-04-25T22:34:25.012Z,98610.00
2023-04-25T22:36:51.457Z,98613.00
2023-04-25T22:39:19.218Z,98617.00
2023-04-25T22:41:46.353Z,98613.00
2023-04-25T22:44:13.122Z,98615.00
2023-04-25T22:46:39.708Z,98618.00
2023-04-25T22:49:06.300Z,98618.00
2023-04-25T22:51:33.156Z,98617.00
2023-04-25T22:54:00.537Z,98617.00
2023-04-25T22:56:29.990Z,98620.00
2023-04-25T22:58:56.960Z,98622.00
2023-04-25T23:01:23.599Z,98617.00
2023-04-25T23:03:50.365Z,98625.00
2023-04-25T23:06:17.093Z,98621.00
2023-04-25T23:08:43.761Z,98629.00
2023-04-25T23:11:10.243Z,98631.00
2023-04-25T23:13:37.113Z,98629.00
2023-04-25T23:16:08.900Z,98630.00
2023-04-25T23:18:36.261Z,98632.00
2023-04-25T23:21:03.892Z,98640.00
2023-04-25T23:23:30.499Z,98641.00
2023-04-25T23:25:57.778Z,98641.00
2023-04-25T23:28:24.526Z,98646.00
2023-04-25T23:30:51.108Z,98642.00
2023-04-25T23:33:17.604Z,98634.00
2023-04-25T23:35:44.089Z,98638.00
2023-04-25T23:38:10.677Z,98640.00
2023-04-25T23:40:37.175Z,98636.00
2023-04-25T23:43:03.730Z,98646.00
2023-04-25T23:45:30.396Z,98640.00
2023-04-25T23:47:57.146Z,98645.00
2023-04-25T23:50:24.330Z,98641.00
2023-04-25T23:52:50.817Z,98635.00
2023-04-25T23:55:17.320Z,98636.00
2023-04-25T23:57:44.343Z,98645.00
